Time;durP1;ratioP1;P1;durP2;ratioP2;P2;SDS_P1;SDS_P2;PMS_P1;PMS_P2;Temp;Humidity;BMP_temperature;BMP_pressure;BME280_temperature;BME280_humidity;BME280_pressure;Samples;Min_cycle;Max_cycle;Signal;HPM_P1;HPM_P2
2022/11/06 00:00:15;;;;;;;4.85;4.35;;;16.20;57.70;;;;;;5015732;28;20203;-73
2022/11/06 00:02:41;;;;;;;8.68;4.97;;;16.20;57.90;;;;;;5015706;28;20200;-72
2022/11/06 00:07:54;;;;;;;4.70;4.30;;;16.20;57.90;;;;;;5015446;28;20713;-72
2022/11/06 00:10:22;;;;;;;4.63;4.20;;;16.20;58.10;;;;;;5015937;28;20201;-72
2022/11/06 00:12:49;;;;;;;5.05;4.55;;;16.10;57.80;;;;;;5015954;28;20208;-72
2022/11/06 00:15:16;;;;;;;7.22;4.30;;;16.10;58.10;;;;;;5016854;28;20670;-72
2022/11/06 00:17:43;;;;;;;4.40;4.00;;;16.10;58.10;;;;;;5015720;28;20227;-72
2022/11/06 00:20:11;;;;;;;5.07;3.90;;;16.10;58.20;;;;;;5015553;28;20262;-72
2022/11/06 00:22:38;;;;;;;5.22;4.32;;;16.10;58.30;;;;;;5015921;28;20208;-72
2022/11/06 00:25:07;;;;;;;4.80;4.40;;;16.00;57.80;;;;;;5017409;28;20215;-72
2022/11/06 00:27:35;;;;;;;4.78;4.05;;;16.00;58.20;;;;;;5013992;28;20590;-72
2022/11/06 00:30:02;;;;;;;4.78;4.15;;;16.00;58.20;;;;;;4999077;28;20731;-72
2022/11/06 00:32:29;;;;;;;5.07;4.57;;;16.00;58.20;;;;;;5047579;23;20233;-72
2022/11/06 00:34:56;;;;;;;4.63;4.22;;;16.00;58.10;;;;;;5016158;28;20211;-72
2022/11/06 00:37:23;;;;;;;4.45;4.05;;;16.00;58.50;;;;;;5015723;28;20228;-71
2022/11/06 00:39:50;;;;;;;4.45;4.05;;;16.00;58.40;;;;;;5015703;28;20542;-71
2022/11/06 00:42:18;;;;;;;4.93;4.50;;;16.00;58.30;;;;;;5015565;28;20197;-72
2022/11/06 00:44:48;;;;;;;4.55;4.15;;;16.00;58.20;;;;;;5017089;28;20200;-72
2022/11/06 00:47:15;;;;;;;4.45;4.05;;;16.00;58.10;;;;;;4999173;28;20237;-72
2022/11/06 00:49:42;;;;;;;4.30;3.83;;;16.00;58.20;;;;;;5016228;28;20228;-72
2022/11/06 00:52:09;;;;;;;4.65;4.13;;;16.00;58.20;;;;;;5015533;28;20193;-72
2022/11/06 00:54:36;;;;;;;5.28;4.88;;;16.00;57.90;;;;;;5016200;28;20204;-71
2022/11/06 00:57:03;;;;;;;4.65;4.25;;;16.00;57.90;;;;;;5015218;28;20258;-71
2022/11/06 00:59:32;;;;;;;4.60;4.20;;;16.00;57.80;;;;;;4999862;28;20262;-71
2022/11/06 01:01:59;;;;;;;5.10;4.60;;;16.00;57.80;;;;;;5015341;28;20251;-70
2022/11/06 01:04:27;;;;;;;4.55;4.15;;;16.00;58.20;;;;;;5014686;28;20208;-71
2022/11/06 01:06:55;;;;;;;4.72;4.30;;;16.00;57.90;;;;;;5014652;28;20224;-71
2022/11/06 01:09:23;;;;;;;4.60;4.20;;;16.00;57.90;;;;;;5016121;28;20201;-71
2022/11/06 01:11:51;;;;;;;4.72;3.92;;;16.00;57.90;;;;;;5014870;28;20303;-72
2022/11/06 01:14:19;;;;;;;4.28;3.88;;;16.00;57.80;;;;;;5014891;28;20193;-71
2022/11/06 01:16:48;;;;;;;4.82;4.05;;;16.00;57.80;;;;;;5015907;28;20213;-71
2022/11/06 01:19:15;;;;;;;5.00;4.50;;;16.00;58.00;;;;;;5015202;28;20316;-71
2022/11/06 01:21:48;;;;;;;4.40;4.00;;;15.90;58.00;;;;;;5015036;28;20260;-72
2022/11/06 01:24:16;;;;;;;4.53;4.13;;;15.90;58.00;;;;;;5015192;28;20193;-72
2022/11/06 01:26:44;;;;;;;4.63;4.10;;;15.90;57.70;;;;;;4998339;28;20667;-72
2022/11/06 01:29:12;;;;;;;5.03;4.22;;;15.90;58.00;;;;;;5014074;28;20632;-72
2022/11/06 01:31:39;;;;;;;4.25;3.85;;;16.00;58.10;;;;;;5014077;28;20275;-72
2022/11/06 01:34:08;;;;;;;4.28;3.97;;;15.90;57.60;;;;;;4998352;28;20185;-71
2022/11/06 01:36:35;;;;;;;4.15;3.83;;;15.90;58.00;;;;;;4998290;28;20217;-72
2022/11/06 01:39:04;;;;;;;4.40;4.00;;;15.90;58.10;;;;;;4997007;28;20217;-71
2022/11/06 01:41:32;;;;;;;4.90;4.40;;;15.90;57.70;;;;;;4997546;28;20678;-72
2022/11/06 01:44:00;;;;;;;4.18;3.88;;;15.90;57.90;;;;;;4997247;28;20196;-71
2022/11/06 01:46:28;;;;;;;4.43;4.03;;;15.90;58.00;;;;;;4997730;28;20231;-71
2022/11/06 01:48:57;;;;;;;4.75;4.28;;;15.90;58.00;;;;;;4997296;28;20193;-71
2022/11/06 01:51:26;;;;;;;4.78;4.20;;;15.90;57.80;;;;;;5014819;28;20193;-70
2022/11/06 01:53:54;;;;;;;5.82;4.43;;;15.90;57.70;;;;;;4997334;28;20207;-70
2022/11/06 01:56:21;;;;;;;4.18;3.88;;;15.90;57.70;;;;;;5014658;28;20188;-72
2022/11/06 01:58:49;;;;;;;4.80;4.13;;;15.90;58.20;;;;;;4997085;28;20220;-71
2022/11/06 02:01:16;;;;;;;4.82;4.38;;;15.90;58.20;;;;;;4981071;28;20312;-72
2022/11/06 02:03:46;;;;;;;4.60;4.20;;;15.90;58.00;;;;;;4997833;28;20679;-71
2022/11/06 02:06:13;;;;;;;3.95;3.65;;;15.90;57.80;;;;;;4997050;28;20209;-72
2022/11/06 02:08:42;;;;;;;3.85;3.55;;;15.90;57.70;;;;;;4997205;28;20625;-72
2022/11/06 02:11:08;;;;;;;4.20;3.90;;;15.90;57.90;;;;;;4997304;28;20562;-71
2022/11/06 02:13:44;;;;;;;4.00;3.70;;;15.90;58.00;;;;;;4996989;28;20197;-72
2022/11/06 02:16:15;;;;;;;4.35;3.95;;;15.90;58.10;;;;;;4997365;28;20283;-71
2022/11/06 02:19:00;;;;;;;4.20;3.80;;;15.90;57.70;;;;;;4997980;28;20533;-72
2022/11/06 02:21:48;;;;;;;4.70;4.22;;;15.90;57.40;;;;;;4996748;28;20193;-71
2022/11/06 02:24:38;;;;;;;4.57;4.18;;;15.90;58.00;;;;;;4980977;28;20251;-71
2022/11/06 02:27:11;;;;;;;4.95;4.55;;;15.90;57.70;;;;;;4997195;28;20582;-71
2022/11/06 02:29:41;;;;;;;5.18;4.68;;;15.90;57.60;;;;;;4996629;28;20201;-71
2022/11/06 02:32:11;;;;;;;4.93;4.15;;;15.90;57.40;;;;;;5014244;28;20225;-72
2022/11/06 02:34:38;;;;;;;4.70;4.35;;;15.90;57.40;;;;;;4996786;28;20208;-71
2022/11/06 02:37:07;;;;;;;4.55;4.15;;;15.90;57.50;;;;;;5014129;28;20212;-71
2022/11/06 02:39:33;;;;;;;4.45;4.05;;;15.90;57.80;;;;;;4996428;28;20690;-71
2022/11/06 02:42:00;;;;;;;4.78;3.80;;;15.90;58.00;;;;;;4996650;28;20208;-71
2022/11/06 02:44:30;;;;;;;4.75;4.10;;;15.90;58.00;;;;;;4996990;28;20197;-72
2022/11/06 02:46:58;;;;;;;4.43;3.92;;;15.90;57.80;;;;;;4996646;28;20244;-72
2022/11/06 02:49:26;;;;;;;4.03;3.72;;;15.90;57.70;;;;;;4996887;28;20288;-72
2022/11/06 02:51:56;;;;;;;4.25;3.90;;;15.90;57.50;;;;;;4996634;28;20574;-72
2022/11/06 02:54:23;;;;;;;4.30;3.90;;;15.90;57.70;;;;;;4996593;28;20291;-72
2022/11/06 02:56:51;;;;;;;4.07;3.78;;;15.90;57.50;;;;;;4996870;28;20220;-72
2022/11/06 02:59:20;;;;;;;4.10;3.80;;;15.90;57.70;;;;;;4996707;28;20282;-72
2022/11/06 03:01:50;;;;;;;4.20;3.80;;;15.90;57.40;;;;;;4997091;28;20574;-72
2022/11/06 03:04:21;;;;;;;4.30;4.00;;;15.80;57.70;;;;;;4997935;28;20537;-72
2022/11/06 03:06:50;;;;;;;4.15;3.75;;;15.90;57.70;;;;;;4997748;28;20229;-72
2022/11/06 03:09:19;;;;;;;4.10;3.70;;;15.80;57.40;;;;;;5013392;28;20203;-72
2022/11/06 03:11:47;;;;;;;3.80;3.50;;;15.80;58.20;;;;;;4996764;28;20280;-72
2022/11/06 03:14:18;;;;;;;4.25;3.83;;;15.80;57.10;;;;;;4996358;28;20235;-70
2022/11/06 03:16:50;;;;;;;4.05;3.75;;;15.80;57.40;;;;;;4996472;28;20220;-71
2022/11/06 03:19:21;;;;;;;4.03;3.72;;;15.80;57.60;;;;;;5012692;28;20671;-71
2022/11/06 03:21:53;;;;;;;4.55;3.65;;;15.80;57.30;;;;;;4996511;28;20215;-71
2022/11/06 03:24:24;;;;;;;3.92;3.63;;;15.80;57.60;;;;;;4996973;28;20247;-71
2022/11/06 03:26:52;;;;;;;3.67;3.35;;;15.80;57.70;;;;;;5013917;28;20209;-71
2022/11/06 03:29:21;;;;;;;4.53;4.13;;;15.80;57.60;;;;;;5013509;28;20208;-71
2022/11/06 03:31:53;;;;;;;3.83;3.53;;;15.80;57.40;;;;;;4996251;28;20205;-71
2022/11/06 03:34:25;;;;;;;3.83;3.53;;;15.80;57.70;;;;;;4996457;28;20220;-71
2022/11/06 03:36:54;;;;;;;4.03;3.63;;;15.80;57.50;;;;;;4995900;28;20225;-71
2022/11/06 03:39:23;;;;;;;3.70;3.40;;;15.80;57.30;;;;;;4995792;28;20636;-71
2022/11/06 03:41:51;;;;;;;3.95;3.65;;;15.80;57.20;;;;;;4995810;28;20276;-71
2022/11/06 03:44:20;;;;;;;4.22;3.92;;;15.80;57.50;;;;;;4995842;28;20203;-71
2022/11/06 03:46:48;;;;;;;4.20;3.80;;;15.80;57.40;;;;;;5011897;28;20228;-71
2022/11/06 03:49:18;;;;;;;3.97;3.67;;;15.80;57.20;;;;;;4995781;28;20659;-71
2022/11/06 03:51:47;;;;;;;3.83;3.53;;;15.80;57.60;;;;;;4995738;28;20205;-71
2022/11/06 03:54:15;;;;;;;3.90;3.47;;;15.80;57.40;;;;;;4995510;28;20324;-71
2022/11/06 03:56:46;;;;;;;3.67;3.38;;;15.80;57.50;;;;;;4995604;28;20689;-71
2022/11/06 03:59:17;;;;;;;3.78;3.47;;;15.80;57.20;;;;;;4995535;28;20292;-71
2022/11/06 04:01:45;;;;;;;3.80;3.50;;;15.70;57.20;;;;;;4997105;28;20220;-71
2022/11/06 04:04:14;;;;;;;3.78;3.47;;;15.70;57.50;;;;;;4999447;28;20207;-71
2022/11/06 04:06:44;;;;;;;3.70;3.40;;;15.70;57.20;;;;;;4999039;28;20227;-71
2022/11/06 04:14:42;;;;;;;3.50;3.17;;;15.70;57.50;;;;;;4999097;28;20554;-72
2022/11/06 04:17:11;;;;;;;3.58;3.38;;;15.70;57.60;;;;;;4999308;28;20312;-72
2022/11/06 04:19:38;;;;;;;3.47;3.28;;;15.70;57.70;;;;;;4998964;28;20212;-72
2022/11/06 04:22:18;;;;;;;3.33;3.10;;;15.70;57.40;;;;;;4998583;28;20196;-72
2022/11/06 04:28:00;;;;;;;3.30;3.10;;;15.60;57.10;;;;;;5016217;28;20205;-71
2022/11/06 04:30:27;;;;;;;3.53;3.22;;;15.60;56.90;;;;;;4998460;28;20721;-71
2022/11/06 04:33:02;;;;;;;3.78;3.47;;;15.60;57.00;;;;;;4998478;28;20263;-71
2022/11/06 04:35:32;;;;;;;3.20;2.90;;;15.60;56.80;;;;;;4998468;28;20255;-71
2022/11/06 04:38:02;;;;;;;3.08;2.88;;;15.60;57.20;;;;;;4998353;28;20292;-71
2022/11/06 04:40:33;;;;;;;3.20;3.00;;;15.60;57.40;;;;;;4998436;28;20287;-71
2022/11/06 04:43:01;;;;;;;3.20;3.00;;;15.60;57.50;;;;;;4998383;28;20208;-71
2022/11/06 04:45:29;;;;;;;3.05;2.85;;;15.70;57.30;;;;;;4998365;28;20208;-71
2022/11/06 04:47:57;;;;;;;3.03;2.83;;;15.70;57.20;;;;;;4998350;28;20690;-71
2022/11/06 04:50:23;;;;;;;3.28;3.08;;;15.70;57.20;;;;;;4998224;28;20200;-71
2022/11/06 04:52:50;;;;;;;3.13;2.92;;;15.70;57.10;;;;;;4998334;28;20196;-71
2022/11/06 04:55:19;;;;;;;3.13;2.90;;;15.70;57.00;;;;;;5015778;28;20193;-71
2022/11/06 04:57:46;;;;;;;2.75;2.55;;;15.70;57.00;;;;;;5014484;28;20327;-71
2022/11/06 05:00:15;;;;;;;3.08;2.88;;;15.70;56.90;;;;;;4998154;28;20231;-71
2022/11/06 05:02:42;;;;;;;2.85;2.65;;;15.80;56.90;;;;;;5015926;28;20686;-71
2022/11/06 05:05:09;;;;;;;3.20;2.95;;;15.70;56.70;;;;;;4998350;28;20284;-71
2022/11/06 05:07:36;;;;;;;2.88;2.67;;;15.80;56.70;;;;;;4998336;28;20221;-71
2022/11/06 05:10:05;;;;;;;3.33;3.05;;;15.80;56.60;;;;;;4998273;28;20663;-71
2022/11/06 05:12:34;;;;;;;3.00;2.80;;;15.80;56.80;;;;;;4997747;28;20241;-71
2022/11/06 05:15:01;;;;;;;3.08;2.80;;;15.80;56.70;;;;;;4998015;28;20572;-72
2022/11/06 05:17:28;;;;;;;3.17;2.97;;;15.80;56.50;;;;;;4998149;28;20271;-72
2022/11/06 05:19:55;;;;;;;2.85;2.65;;;15.90;57.00;;;;;;5015737;28;20205;-72
2022/11/06 05:25:08;;;;;;;2.88;2.67;;;15.80;56.60;;;;;;4997797;28;20188;-72
2022/11/06 05:27:36;;;;;;;3.03;2.83;;;15.90;56.60;;;;;;4981959;28;20216;-72
2022/11/06 05:30:04;;;;;;;2.80;2.60;;;15.90;56.50;;;;;;4998068;28;20201;-72
2022/11/06 05:32:31;;;;;;;3.00;2.80;;;15.90;56.90;;;;;;4998032;28;20204;-72
2022/11/06 05:34:59;;;;;;;2.78;2.58;;;15.90;56.70;;;;;;4998454;28;20222;-72
2022/11/06 05:37:27;;;;;;;2.63;2.45;;;15.90;56.60;;;;;;4998114;28;20220;-72
2022/11/06 05:39:54;;;;;;;2.90;2.70;;;15.80;56.60;;;;;;5015667;28;20624;-72
2022/11/06 05:42:22;;;;;;;3.05;2.85;;;15.80;56.60;;;;;;4998008;28;20197;-72
2022/11/06 05:44:50;;;;;;;2.50;2.30;;;15.90;56.80;;;;;;5012708;28;20183;-72
2022/11/06 05:47:17;;;;;;;2.90;2.70;;;15.90;56.50;;;;;;5018740;28;20228;-72
2022/11/06 05:49:44;;;;;;;3.20;3.00;;;15.90;56.40;;;;;;4998366;28;20578;-72
2022/11/06 05:52:11;;;;;;;2.90;2.70;;;15.90;56.30;;;;;;4997961;28;20570;-72
2022/11/06 05:54:39;;;;;;;2.70;2.55;;;15.90;56.30;;;;;;4997727;28;20201;-72
2022/11/06 05:57:06;;;;;;;2.90;2.70;;;15.90;56.20;;;;;;5015417;28;20208;-72
2022/11/06 05:59:33;;;;;;;2.80;2.60;;;15.90;56.20;;;;;;4997442;28;20225;-72
2022/11/06 06:02:02;;;;;;;2.65;2.45;;;15.90;56.40;;;;;;4998174;28;20676;-72
2022/11/06 06:04:28;;;;;;;2.83;2.63;;;15.90;56.40;;;;;;4997697;28;20196;-72
2022/11/06 06:06:55;;;;;;;3.15;2.92;;;15.90;56.50;;;;;;4997252;28;20216;-71
2022/11/06 06:09:23;;;;;;;2.72;2.53;;;15.80;56.50;;;;;;4997201;28;20204;-71
2022/11/06 06:11:51;;;;;;;2.88;2.67;;;15.80;56.30;;;;;;5014798;28;20184;-71
2022/11/06 06:14:18;;;;;;;2.60;2.40;;;15.80;56.50;;;;;;5014862;28;20236;-72
2022/11/06 06:16:45;;;;;;;2.50;2.30;;;15.80;56.50;;;;;;4996671;28;20256;-71
2022/11/06 06:19:13;;;;;;;2.78;2.58;;;15.80;56.50;;;;;;4996673;28;20221;-71
2022/11/06 06:21:40;;;;;;;3.03;2.80;;;15.80;56.40;;;;;;4997603;28;20247;-72
2022/11/06 06:24:08;;;;;;;2.72;2.53;;;15.80;56.30;;;;;;5014331;28;20656;-72
2022/11/06 06:26:34;;;;;;;2.85;2.65;;;15.80;56.30;;;;;;5014202;28;20678;-70
2022/11/06 06:29:02;;;;;;;2.80;2.60;;;15.80;56.30;;;;;;5014695;28;20208;-70
2022/11/06 06:31:29;;;;;;;2.60;2.40;;;15.80;56.30;;;;;;4996726;28;20659;-70
2022/11/06 06:33:56;;;;;;;2.50;2.40;;;15.80;56.60;;;;;;4996362;28;20218;-70
2022/11/06 06:36:25;;;;;;;2.88;2.67;;;15.80;56.40;;;;;;4996429;28;20307;-70
2022/11/06 06:38:52;;;;;;;2.60;2.40;;;15.80;56.40;;;;;;4996254;28;20213;-70
2022/11/06 06:41:20;;;;;;;2.80;2.60;;;15.80;56.50;;;;;;4996475;28;20200;-70
2022/11/06 06:43:48;;;;;;;2.80;2.60;;;15.80;56.10;;;;;;4996839;28;20220;-70
2022/11/06 06:46:15;;;;;;;2.70;2.50;;;15.90;56.30;;;;;;4996150;28;20211;-70
2022/11/06 06:48:42;;;;;;;3.00;2.80;;;15.90;56.00;;;;;;4996147;28;20197;-71
2022/11/06 06:51:09;;;;;;;2.60;2.40;;;15.90;56.10;;;;;;4996131;28;20208;-71
2022/11/06 06:53:37;;;;;;;2.70;2.50;;;15.90;56.00;;;;;;4980183;28;20192;-71
2022/11/06 06:56:04;;;;;;;2.72;2.53;;;15.90;56.20;;;;;;4996224;28;20227;-71
2022/11/06 06:58:31;;;;;;;2.80;2.60;;;15.90;56.00;;;;;;4996119;28;20208;-71
2022/11/06 07:01:00;;;;;;;2.60;2.40;;;15.90;56.20;;;;;;4996342;28;20224;-71
2022/11/06 07:03:28;;;;;;;2.67;2.47;;;15.90;56.00;;;;;;4996215;28;20201;-71
2022/11/06 07:05:55;;;;;;;3.38;2.80;;;15.90;56.00;;;;;;4996010;28;20204;-71
2022/11/06 07:08:22;;;;;;;2.50;2.40;;;15.90;56.00;;;;;;4995954;28;20706;-71
2022/11/06 07:10:51;;;;;;;2.63;2.42;;;15.90;56.30;;;;;;4980013;28;20196;-71
2022/11/06 07:13:18;;;;;;;2.47;2.30;;;16.00;56.00;;;;;;4996604;28;20562;-71
2022/11/06 07:15:45;;;;;;;2.60;2.40;;;16.00;56.00;;;;;;4996965;28;20216;-71
2022/11/06 07:18:12;;;;;;;3.05;2.83;;;16.00;56.20;;;;;;4995916;28;20228;-71
2022/11/06 07:20:40;;;;;;;3.08;2.88;;;16.00;56.00;;;;;;4996104;28;20529;-71
2022/11/06 07:23:07;;;;;;;2.88;2.60;;;16.00;56.20;;;;;;4996006;28;20208;-71
2022/11/06 07:25:34;;;;;;;3.03;2.45;;;16.10;56.30;;;;;;4995882;28;20204;-71
2022/11/06 07:28:05;;;;;;;3.30;2.75;;;16.10;55.90;;;;;;4995994;28;20228;-72
2022/11/06 07:30:32;;;;;;;2.70;2.50;;;16.10;56.00;;;;;;4995830;28;20259;-72
2022/11/06 07:33:00;;;;;;;2.60;2.40;;;16.10;56.00;;;;;;4995791;28;20593;-72
2022/11/06 07:35:27;;;;;;;2.80;2.60;;;16.10;55.90;;;;;;4995930;28;20212;-72
2022/11/06 07:37:54;;;;;;;2.72;2.53;;;16.10;55.80;;;;;;5016511;28;20377;-71
2022/11/06 07:40:21;;;;;;;3.00;2.80;;;16.20;55.80;;;;;;4999416;28;20212;-70
2022/11/06 07:42:48;;;;;;;3.05;2.80;;;16.20;55.80;;;;;;4999499;28;20220;-70
2022/11/06 07:45:18;;;;;;;3.00;2.80;;;16.20;55.60;;;;;;4999616;28;20193;-70
2022/11/06 07:47:45;;;;;;;3.20;2.88;;;16.20;55.60;;;;;;4999298;28;20228;-70
2022/11/06 07:50:12;;;;;;;3.10;2.90;;;16.20;55.80;;;;;;4999518;28;20263;-71
2022/11/06 07:52:39;;;;;;;2.80;2.60;;;16.30;55.80;;;;;;4999547;28;20200;-71
2022/11/06 07:55:07;;;;;;;2.85;2.65;;;16.30;55.50;;;;;;4999518;28;20204;-71
2022/11/06 07:57:36;;;;;;;3.40;3.10;;;16.30;55.60;;;;;;4999281;28;20307;-71
2022/11/06 08:00:04;;;;;;;3.45;3.15;;;16.30;55.20;;;;;;4999796;28;20224;-71
2022/11/06 08:02:40;;;;;;;3.00;2.80;;;16.30;55.20;;;;;;5000662;28;20299;-71
2022/11/06 08:05:08;;;;;;;2.90;2.70;;;16.40;55.00;;;;;;4999200;28;20208;-71
2022/11/06 08:07:35;;;;;;;2.95;2.75;;;16.50;55.00;;;;;;5017214;28;20219;-71
2022/11/06 08:10:03;;;;;;;3.00;2.80;;;16.50;55.00;;;;;;4999383;28;20656;-71
2022/11/06 08:12:30;;;;;;;2.72;2.53;;;16.60;55.10;;;;;;4999934;28;20203;-71
2022/11/06 08:14:57;;;;;;;2.75;2.58;;;16.60;54.90;;;;;;4999341;28;20576;-69
2022/11/06 08:17:24;;;;;;;2.90;2.70;;;16.70;54.70;;;;;;4999828;28;20717;-71
2022/11/06 08:19:53;;;;;;;3.03;2.83;;;16.80;54.90;;;;;;5019597;28;20267;-71
2022/11/06 08:22:20;;;;;;;2.95;2.75;;;16.90;54.90;;;;;;4999982;28;20197;-71
2022/11/06 08:24:47;;;;;;;3.03;2.83;;;16.90;54.80;;;;;;5000884;28;20574;-71
2022/11/06 08:27:14;;;;;;;2.90;2.70;;;17.00;54.80;;;;;;5018303;28;20213;-71
2022/11/06 08:29:41;;;;;;;2.70;2.50;;;17.00;54.60;;;;;;4999672;28;20667;-71
2022/11/06 08:32:08;;;;;;;3.03;2.83;;;17.10;54.40;;;;;;4999643;28;20204;-71
2022/11/06 08:34:35;;;;;;;2.70;2.50;;;17.10;54.30;;;;;;4998904;28;20209;-71
2022/11/06 08:37:04;;;;;;;3.15;2.92;;;17.30;54.50;;;;;;4999057;28;20226;-71
2022/11/06 08:39:31;;;;;;;3.03;2.83;;;17.30;54.30;;;;;;4999605;28;20217;-70
2022/11/06 08:41:58;;;;;;;3.22;3.00;;;17.40;54.20;;;;;;4998847;28;20211;-71
2022/11/06 08:44:25;;;;;;;3.15;2.85;;;17.40;54.10;;;;;;4998330;28;20291;-71
2022/11/06 08:46:53;;;;;;;2.80;2.60;;;17.50;54.10;;;;;;4998430;28;20216;-71
2022/11/06 08:49:20;;;;;;;2.92;2.72;;;17.50;53.90;;;;;;4997439;28;20224;-71
2022/11/06 08:51:47;;;;;;;3.05;2.85;;;17.60;53.90;;;;;;4982512;28;20280;-71
2022/11/06 08:54:15;;;;;;;3.47;3.17;;;17.60;53.60;;;;;;4998364;28;20197;-71
2022/11/06 08:56:42;;;;;;;2.83;2.63;;;17.60;53.30;;;;;;5015866;28;20213;-71
2022/11/06 08:59:09;;;;;;;3.10;2.80;;;17.70;53.70;;;;;;5015771;28;20211;-71
2022/11/06 09:01:37;;;;;;;3.08;2.88;;;17.70;53.50;;;;;;4998179;28;20200;-71
2022/11/06 09:04:04;;;;;;;3.40;3.10;;;17.70;53.50;;;;;;4998117;28;20568;-71
2022/11/06 09:06:32;;;;;;;3.75;3.45;;;17.70;53.30;;;;;;4998262;28;20316;-71
2022/11/06 09:09:00;;;;;;;3.45;3.15;;;17.70;53.30;;;;;;4997997;28;20201;-72
2022/11/06 09:11:29;;;;;;;3.88;3.58;;;17.70;52.90;;;;;;4998115;28;20204;-71
2022/11/06 09:13:58;;;;;;;3.28;3.08;;;17.80;52.80;;;;;;4997969;28;20566;-71
2022/11/06 09:16:26;;;;;;;3.65;3.35;;;17.70;52.90;;;;;;4997950;28;20227;-71
2022/11/06 09:18:54;;;;;;;3.80;3.50;;;17.80;53.00;;;;;;4997716;28;20272;-71
2022/11/06 09:21:22;;;;;;;4.20;3.83;;;17.80;52.80;;;;;;4997501;28;20287;-72
2022/11/06 09:23:48;;;;;;;3.50;3.30;;;17.80;52.80;;;;;;4997427;28;20208;-72
2022/11/06 09:26:15;;;;;;;3.47;3.15;;;17.70;53.40;;;;;;5014916;28;20598;-72
2022/11/06 09:28:43;;;;;;;3.55;3.33;;;17.80;52.80;;;;;;4997600;28;20210;-72
2022/11/06 09:34:02;;;;;;;4.03;3.72;;;17.80;53.00;;;;;;4993878;28;20272;-66
2022/11/06 09:36:28;;;;;;;3.65;3.35;;;17.80;52.80;;;;;;4977426;28;20566;-65
2022/11/06 09:38:55;;;;;;;4.00;3.70;;;17.80;52.90;;;;;;5050502;23;20224;-68
2022/11/06 09:41:26;;;;;;;4.05;3.75;;;17.80;53.20;;;;;;5017590;28;20270;-68
2022/11/06 09:44:02;;;;;;;3.40;3.13;;;17.80;52.80;;;;;;5018032;28;20196;-68
2022/11/06 09:46:30;;;;;;;3.35;3.05;;;17.80;52.80;;;;;;5019018;28;20224;-68
2022/11/06 09:49:01;;;;;;;4.35;3.95;;;17.70;52.70;;;;;;5018065;28;20535;-68
2022/11/06 09:51:32;;;;;;;3.92;3.63;;;17.70;52.80;;;;;;5017359;28;20192;-68
2022/11/06 09:54:01;;;;;;;3.67;3.38;;;17.70;52.80;;;;;;5017392;28;20653;-68
2022/11/06 09:56:30;;;;;;;3.60;3.33;;;17.70;53.00;;;;;;5017331;28;20216;-68
2022/11/06 09:58:59;;;;;;;3.75;3.45;;;17.70;53.20;;;;;;5017042;28;20266;-67
2022/11/06 10:06:48;;;;;;;3.83;3.53;;;17.80;53.90;;;;;;5018905;22;20231;-69
2022/11/06 10:09:16;;;;;;;5.15;4.05;;;17.80;54.70;;;;;;5057139;23;20280;-71
2022/11/06 10:11:56;;;;;;;3.83;3.42;;;17.80;54.10;;;;;;5093373;23;20322;-72
2022/11/06 10:14:31;;;;;;;27.52;12.73;;;17.80;54.40;;;;;;5037108;28;20542;-70
2022/11/06 10:17:02;;;;;;;917.92;584.25;;;17.80;55.30;;;;;;5053509;22;20701;-71
2022/11/06 10:19:35;;;;;;;509.27;326.10;;;17.90;58.30;;;;;;5026599;23;20236;-67
2022/11/06 10:22:04;;;;;;;293.67;190.70;;;17.90;60.40;;;;;;5012965;28;20185;-67
2022/11/06 10:24:35;;;;;;;151.63;100.72;;;17.90;60.40;;;;;;5014243;28;20203;-67
2022/11/06 10:27:02;;;;;;;158.35;99.68;;;17.90;59.10;;;;;;5013253;28;20559;-67
2022/11/06 10:29:38;;;;;;;144.18;93.85;;;18.00;58.60;;;;;;5014660;28;20213;-67
2022/11/06 10:32:16;;;;;;;119.72;78.60;;;18.00;57.80;;;;;;5013040;28;20664;-67
2022/11/06 10:34:44;;;;;;;105.63;70.95;;;18.10;57.40;;;;;;5027232;23;20232;-70
2022/11/06 10:37:12;;;;;;;102.85;67.20;;;18.10;57.00;;;;;;5026656;23;20240;-67
2022/11/06 10:39:40;;;;;;;88.72;60.75;;;18.10;56.70;;;;;;5016370;28;20193;-67
2022/11/06 10:42:11;;;;;;;92.32;60.08;;;18.10;56.60;;;;;;5080476;22;20339;-72
2022/11/06 10:44:41;;;;;;;90.28;60.78;;;18.10;56.40;;;;;;4998148;28;20291;-71
2022/11/06 10:49:55;;;;;;;85.00;57.80;;;18.20;56.00;;;;;;5014105;28;20592;-70
2022/11/06 10:52:31;;;;;;;85.15;57.22;;;18.20;56.70;;;;;;5013332;28;20205;-70
2022/11/06 10:55:05;;;;;;;86.95;58.65;;;18.20;56.20;;;;;;5013060;28;20280;-71
2022/11/06 10:57:36;;;;;;;80.38;51.70;;;18.20;56.10;;;;;;5013863;28;20243;-71
2022/11/06 11:00:11;;;;;;;72.72;47.92;;;18.30;56.20;;;;;;5070576;22;20279;-68
2022/11/06 11:02:40;;;;;;;72.28;50.78;;;18.30;55.80;;;;;;5018033;28;20195;-68
2022/11/06 11:05:11;;;;;;;65.53;44.38;;;18.40;55.60;;;;;;5035382;28;20261;-68
2022/11/06 11:07:38;;;;;;;62.50;43.17;;;18.40;55.70;;;;;;5132666;23;20247;-70
2022/11/06 11:10:29;;;;;;;58.25;40.70;;;18.50;55.90;;;;;;5046176;28;20619;-69
2022/11/06 11:12:57;;;;;;;52.08;39.65;;;18.40;55.10;;;;;;5100536;22;20247;-71
2022/11/06 11:15:26;;;;;;;59.95;44.78;;;18.50;55.50;;;;;;5020635;28;20295;-71
2022/11/06 11:18:14;;;;;;;58.30;40.42;;;18.50;55.30;;;;;;5034870;23;20289;-70
2022/11/06 11:20:42;;;;;;;55.72;39.25;;;18.60;56.10;;;;;;5021638;28;20211;-69
2022/11/06 11:23:17;;;;;;;59.90;43.75;;;18.50;55.30;;;;;;5020292;28;20200;-70
2022/11/06 11:25:45;;;;;;;55.17;37.80;;;18.60;55.70;;;;;;5020389;28;20203;-69
2022/11/06 11:28:20;;;;;;;55.47;38.15;;;18.60;55.70;;;;;;5034671;23;20231;-70
2022/11/06 11:30:52;;;;;;;57.00;38.13;;;18.60;55.10;;;;;;5019939;28;20219;-70
2022/11/06 11:38:27;;;;;;;42.15;30.88;;;18.60;55.40;;;;;;5035834;28;20293;-68
2022/11/06 11:40:55;;;;;;;47.03;30.48;;;18.70;54.80;;;;;;5048393;22;20214;-69
2022/11/06 11:43:24;;;;;;;45.38;31.58;;;18.70;54.60;;;;;;5020111;28;20283;-68
2022/11/06 11:51:14;;;;;;;34.35;24.90;;;18.80;54.50;;;;;;5010744;28;20222;-70
2022/11/06 11:53:41;;;;;;;40.20;27.20;;;18.80;54.40;;;;;;5045046;23;20237;-68
2022/11/06 11:58:51;;;;;;;30.08;23.35;;;18.80;54.30;;;;;;5016040;28;20271;-70
2022/11/06 12:01:18;;;;;;;29.92;21.98;;;18.80;54.20;;;;;;5017637;28;20216;-69
2022/11/06 12:03:46;;;;;;;33.03;21.80;;;18.80;54.20;;;;;;5016695;28;20659;-70
2022/11/06 12:06:16;;;;;;;29.10;21.10;;;18.90;54.40;;;;;;5015626;28;20200;-71
2022/11/06 12:08:46;;;;;;;28.00;21.38;;;18.90;54.30;;;;;;4999166;28;20193;-70
2022/11/06 12:11:14;;;;;;;30.75;21.15;;;18.90;54.10;;;;;;5032279;23;20564;-70
2022/11/06 12:13:41;;;;;;;25.27;18.75;;;18.90;54.20;;;;;;5039061;28;20246;-69
2022/11/06 12:16:10;;;;;;;28.63;20.23;;;19.00;53.90;;;;;;5022908;28;20226;-69
2022/11/06 12:21:05;;;;;;;25.38;18.27;;;19.00;54.70;;;;;;5015079;28;20690;-69
2022/11/06 12:23:36;;;;;;;25.45;18.52;;;19.00;54.10;;;;;;5069414;22;20292;-70
2022/11/06 12:26:05;;;;;;;23.33;17.08;;;19.00;53.80;;;;;;5060699;28;20196;-71
2022/11/06 12:28:33;;;;;;;25.17;17.50;;;19.00;53.80;;;;;;5059899;28;20649;-71
2022/11/06 12:31:02;;;;;;;22.40;15.95;;;19.00;53.80;;;;;;5059019;28;20564;-71
2022/11/06 12:33:29;;;;;;;23.08;16.05;;;19.00;54.00;;;;;;5059153;28;20205;-71
2022/11/06 12:35:58;;;;;;;22.40;16.70;;;19.00;54.00;;;;;;5076789;28;20202;-71
2022/11/06 12:38:29;;;;;;;21.90;15.07;;;19.00;53.80;;;;;;5076656;28;20275;-71
2022/11/06 12:40:58;;;;;;;19.95;14.60;;;19.00;53.80;;;;;;5076452;28;20210;-71
2022/11/06 12:43:28;;;;;;;19.15;13.32;;;19.00;53.80;;;;;;5058143;28;20285;-71
2022/11/06 12:46:17;;;;;;;19.35;13.82;;;19.00;53.80;;;;;;5058591;28;20194;-71
2022/11/06 12:48:58;;;;;;;19.50;13.05;;;19.00;53.80;;;;;;5076065;28;20591;-71
2022/11/06 12:51:28;;;;;;;17.75;12.50;;;19.00;54.00;;;;;;5057873;28;20182;-71
2022/11/06 12:54:01;;;;;;;19.35;12.80;;;19.00;53.80;;;;;;5057907;28;20199;-71
2022/11/06 12:56:33;;;;;;;20.00;12.90;;;19.00;53.80;;;;;;5057602;28;20225;-71
2022/11/06 12:59:09;;;;;;;14.57;11.13;;;19.00;53.90;;;;;;5057691;28;20199;-71
2022/11/06 13:01:45;;;;;;;21.75;13.48;;;19.00;53.50;;;;;;5057648;28;20583;-71
2022/11/06 13:04:29;;;;;;;16.90;12.30;;;19.00;53.80;;;;;;5057932;28;20202;-71
2022/11/06 13:07:19;;;;;;;15.38;11.80;;;19.00;53.80;;;;;;5058152;28;20264;-70
2022/11/06 13:09:50;;;;;;;16.85;11.82;;;19.00;54.00;;;;;;5045708;28;20234;-71
2022/11/06 13:12:20;;;;;;;17.38;12.02;;;19.00;54.10;;;;;;5057912;28;20187;-73
2022/11/06 13:14:52;;;;;;;16.63;10.18;;;19.00;54.20;;;;;;5057477;28;20203;-74
2022/11/06 13:17:22;;;;;;;16.13;10.23;;;19.00;54.20;;;;;;5075732;28;20230;-73
2022/11/06 13:19:52;;;;;;;15.77;10.75;;;19.00;54.30;;;;;;5057511;28;20195;-73
2022/11/06 13:22:23;;;;;;;15.00;10.30;;;19.00;54.20;;;;;;5057255;28;20305;-73
2022/11/06 13:24:53;;;;;;;14.35;10.07;;;19.00;54.00;;;;;;5057594;28;20621;-72
2022/11/06 13:27:26;;;;;;;13.20;9.73;;;18.90;54.00;;;;;;5057650;28;20237;-73
2022/11/06 13:29:55;;;;;;;11.98;8.98;;;19.00;53.70;;;;;;5057834;28;20194;-73
2022/11/06 13:32:23;;;;;;;13.00;8.50;;;19.00;53.80;;;;;;5057649;28;20634;-72